PWSweather.com
Personal Weather Stations
Station Observations
KMDSOLOM1
solomons, Solomons, MD 20688

solomonsSolomons, MD 20688

Lat: 38.32, Lon: -76.45

Elevation: 5

Station Type:

http://www.act-us.info/weather

High Low Average
Temperature 69.7°F20.9°C 48.5°F9.2°C 59.4°F15.2°C
Dew Point 67.3°F19.6°C 34.8°F1.6°C 47.7°F8.7°C
Winds 29.0 mph 46.7 kmh Calm Calm 11.0 mph SSW17.7 kmh SSW
Wind Gusts 38.0 mph61.2 kmh -- 18.0 mph29.0 kmh
Humidity 96% 43% 67%
Pressure 30.01 in1016.3 mb 29.31 in992.6 mb -
Precipitation 0.00 in0.0 mm - -
Hour Temp Dew Point Humidity Winds Wind Gusts Pressure Precip Precip Rate Daily Precip Total
12:00 AM 69.6°F20.9°C 65.6°F18.7°C 87% 12.0 mph ESE19.3 kmh ESE 15.0 mph24.1 kmh 29.41 in995.9 mb 0.00 in0.0 mm 0.00 in0.0 mm 0.00 in0.0 mm
12:05 AM 69.5°F20.8°C 65.5°F18.6°C 87% 8.0 mph SE12.9 kmh SE 15.0 mph24.1 kmh 29.41 in995.9 mb 0.00 in0.0 mm 0.00 in0.0 mm 0.00 in0.0 mm
12:10 AM 69.4°F20.8°C 65.4°F18.6°C 87% 11.0 mph ESE17.7 kmh ESE 11.0 mph17.7 kmh 29.40 in995.6 mb 0.00 in0.0 mm 0.00 in0.0 mm 0.00 in0.0 mm
12:15 AM 69.5°F20.8°C 65.5°F18.6°C 87% 11.0 mph ESE17.7 kmh ESE 15.0 mph24.1 kmh 29.40 in995.6 mb 0.00 in0.0 mm 0.00 in0.0 mm 0.00 in0.0 mm
12:20 AM 69.5°F20.8°C 65.5°F18.6°C 87% 11.0 mph ESE17.7 kmh ESE 15.0 mph24.1 kmh 29.39 in995.3 mb 0.00 in0.0 mm 0.00 in0.0 mm 0.00 in0.0 mm
12:25 AM 69.7°F20.9°C 65.7°F18.7°C 87% 11.0 mph ESE17.7 kmh ESE 12.0 mph19.3 kmh 29.39 in995.3 mb 0.00 in0.0 mm 0.00 in0.0 mm 0.00 in0.0 mm
12:30 AM 69.7°F20.9°C 65.7°F18.7°C 87% 13.0 mph ESE20.9 kmh ESE 17.0 mph27.4 kmh 29.38 in994.9 mb 0.00 in0.0 mm 0.00 in0.0 mm 0.00 in0.0 mm
12:35 AM 69.6°F20.9°C 65.6°F18.7°C 87% 15.0 mph ESE24.1 kmh ESE 17.0 mph27.4 kmh 29.36 in994.2 mb 0.00 in0.0 mm 0.00 in0.0 mm 0.00 in0.0 mm
12:40 AM 69.6°F20.9°C 65.9°F18.8°C 88% 11.0 mph ESE17.7 kmh ESE 11.0 mph17.7 kmh 29.36 in994.2 mb 0.00 in0.0 mm 0.00 in0.0 mm 0.00 in0.0 mm
12:45 AM 69.3°F20.7°C 65.3°F18.5°C 87% 11.0 mph ESE17.7 kmh ESE 14.0 mph22.5 kmh 29.36 in994.2 mb 0.00 in0.0 mm 0.00 in0.0 mm 0.00 in0.0 mm
12:50 AM 69.2°F20.7°C 65.8°F18.8°C 89% 7.0 mph SE11.3 kmh SE 19.0 mph30.6 kmh 29.36 in994.2 mb 0.00 in0.0 mm 0.00 in0.0 mm 0.00 in0.0 mm
12:55 AM 69.4°F20.8°C 66.0°F18.9°C 89% 11.0 mph ESE17.7 kmh ESE 13.0 mph20.9 kmh 29.35 in993.9 mb 0.00 in0.0 mm 0.00 in0.0 mm 0.00 in0.0 mm
01:00 AM 69.1°F20.6°C 65.4°F18.6°C 88% 12.0 mph ESE19.3 kmh ESE 16.0 mph25.7 kmh 29.35 in993.9 mb 0.00 in0.0 mm 0.00 in0.0 mm 0.00 in0.0 mm
01:05 AM 69.1°F20.6°C 65.7°F18.7°C 89% 12.0 mph ESE19.3 kmh ESE 16.0 mph25.7 kmh 29.33 in993.2 mb 0.00 in0.0 mm 0.00 in0.0 mm 0.00 in0.0 mm
01:10 AM 68.9°F20.5°C 65.9°F18.8°C 90% 13.0 mph SE20.9 kmh SE 14.0 mph22.5 kmh 29.34 in993.6 mb 0.00 in0.0 mm 0.00 in0.0 mm 0.00 in0.0 mm
01:15 AM 69.3°F20.7°C 66.9°F19.4°C 92% 7.0 mph SSE11.3 kmh SSE 24.0 mph38.6 kmh 29.36 in994.2 mb 0.15 in3.8 mm 1.80 in45.7 mm 0.15 in3.8 mm
01:20 AM 69.4°F20.8°C 67.0°F19.4°C 92% 2.0 mph SE3.2 kmh SE 24.0 mph38.6 kmh 29.34 in993.6 mb 0.17 in4.3 mm 0.24 in6.1 mm 0.17 in4.3 mm
01:25 AM 69.4°F20.8°C 67.3°F19.6°C 93% 3.0 mph SE4.8 kmh SE 5.0 mph8.0 kmh 29.35 in993.9 mb 0.18 in4.6 mm 0.12 in3.0 mm 0.18 in4.6 mm
01:30 AM 69.3°F20.7°C 67.2°F19.6°C 93% 5.0 mph SE8.0 kmh SE 12.0 mph19.3 kmh 29.34 in993.6 mb 0.26 in6.6 mm 0.96 in24.4 mm 0.26 in6.6 mm
01:35 AM 69.2°F20.7°C 67.1°F19.5°C 93% 5.0 mph SE8.0 kmh SE 16.0 mph25.7 kmh 29.33 in993.2 mb 0.30 in7.6 mm 0.48 in12.2 mm 0.30 in7.6 mm
01:40 AM 69.1°F20.6°C 67.0°F19.4°C 93% 4.0 mph SE6.4 kmh SE 5.0 mph8.0 kmh 29.32 in992.9 mb 0.34 in8.6 mm 0.48 in12.2 mm 0.34 in8.6 mm
01:45 AM 68.3°F20.2°C 66.2°F19.0°C 93% 5.0 mph ESE8.0 kmh ESE 19.0 mph30.6 kmh 29.32 in992.9 mb 0.37 in9.4 mm 0.36 in9.1 mm 0.37 in9.4 mm
01:50 AM 68.5°F20.3°C 66.4°F19.1°C 93% 3.0 mph SE4.8 kmh SE 19.0 mph30.6 kmh 29.33 in993.2 mb 0.41 in10.4 mm 0.48 in12.2 mm 0.41 in10.4 mm
01:55 AM 68.6°F20.3°C 66.8°F19.3°C 94% 1.0 mph SW1.6 kmh SW 2.0 mph3.2 kmh 29.33 in993.2 mb 0.41 in10.4 mm 0.00 in0.0 mm 0.41 in10.4 mm
02:00 AM 68.7°F20.4°C 66.9°F19.4°C 94% 7.0 mph SW11.3 kmh SW 13.0 mph20.9 kmh 29.36 in994.2 mb 0.43 in10.9 mm 0.02 in0.5 mm 0.43 in10.9 mm
02:05 AM 68.4°F20.2°C 66.3°F19.1°C 93% 11.0 mph S17.7 kmh S 23.0 mph37.0 kmh 29.35 in993.9 mb 0.45 in11.4 mm 0.24 in6.1 mm 0.45 in11.4 mm
02:10 AM 68.1°F20.1°C 65.7°F18.7°C 92% 6.0 mph S9.7 kmh S 11.0 mph17.7 kmh 29.36 in994.2 mb 0.49 in12.4 mm 0.48 in12.2 mm 0.49 in12.4 mm
02:15 AM 67.6°F19.8°C 65.2°F18.4°C 92% 11.0 mph S17.7 kmh S 17.0 mph27.4 kmh 29.35 in993.9 mb 0.52 in13.2 mm 0.36 in9.1 mm 0.52 in13.2 mm
02:20 AM 67.5°F19.7°C 65.1°F18.4°C 92% 7.0 mph S11.3 kmh S 22.0 mph35.4 kmh 29.34 in993.6 mb 0.55 in14.0 mm 0.36 in9.1 mm 0.55 in14.0 mm
02:25 AM 67.2°F19.6°C 64.8°F18.2°C 92% 9.0 mph S14.5 kmh S 9.0 mph14.5 kmh 29.34 in993.6 mb 0.39 in9.9 mm 0.00 in0.0 mm 0.55 in14.0 mm
02:30 AM 66.8°F19.3°C 64.4°F18.0°C 92% 8.0 mph SE12.9 kmh SE 20.0 mph32.2 kmh 29.34 in993.6 mb 0.40 in10.2 mm 0.12 in3.0 mm 0.56 in14.2 mm
02:35 AM 66.7°F19.3°C 64.3°F17.9°C 92% 6.0 mph S9.7 kmh S 20.0 mph32.2 kmh 29.33 in993.2 mb 0.42 in10.7 mm 0.24 in6.1 mm 0.58 in14.7 mm
02:40 AM 66.5°F19.2°C 64.1°F17.8°C 92% 2.0 mph SSE3.2 kmh SSE 2.0 mph3.2 kmh 29.31 in992.6 mb 0.28 in7.1 mm 0.00 in0.0 mm 0.58 in14.7 mm
02:45 AM 66.4°F19.1°C 64.0°F17.8°C 92% 1.0 mph S1.6 kmh S 11.0 mph17.7 kmh 29.31 in992.6 mb 0.29 in7.4 mm 0.12 in3.0 mm 0.59 in15.0 mm
02:50 AM 66.2°F19.0°C 63.8°F17.7°C 92% 4.0 mph S6.4 kmh S 12.0 mph19.3 kmh 29.32 in992.9 mb 0.29 in7.4 mm 0.00 in0.0 mm 0.59 in15.0 mm
02:55 AM 66.0°F18.9°C 63.6°F17.6°C 92% 19.0 mph SW30.6 kmh SW 28.0 mph45.1 kmh 29.34 in993.6 mb 0.22 in5.6 mm 0.00 in0.0 mm 0.59 in15.0 mm
03:00 AM 64.0°F17.8°C 60.7°F15.9°C 89% 20.0 mph SSW32.2 kmh SSW 33.0 mph53.1 kmh 29.36 in994.2 mb 0.23 in5.8 mm 0.01 in0.3 mm 0.60 in15.2 mm
03:05 AM 63.3°F17.4°C 60.3°F15.7°C 90% 12.0 mph SSW19.3 kmh SSW 33.0 mph53.1 kmh 29.34 in993.6 mb 0.24 in6.1 mm 0.12 in3.0 mm 0.61 in15.5 mm
03:10 AM 63.0°F17.2°C 60.3°F15.7°C 91% 8.0 mph SSW12.9 kmh SSW 8.0 mph12.9 kmh 29.34 in993.6 mb 0.17 in4.3 mm 0.00 in0.0 mm 0.61 in15.5 mm
03:15 AM 62.8°F17.1°C 60.1°F15.6°C 91% 5.0 mph SSW8.0 kmh SSW 13.0 mph20.9 kmh 29.35 in993.9 mb 0.18 in4.6 mm 0.12 in3.0 mm 0.62 in15.7 mm
03:20 AM 62.8°F17.1°C 60.5°F15.8°C 92% 3.0 mph S4.8 kmh S 14.0 mph22.5 kmh 29.35 in993.9 mb 0.18 in4.6 mm 0.00 in0.0 mm 0.62 in15.7 mm
03:25 AM 62.8°F17.1°C 60.5°F15.8°C 92% 3.0 mph SW4.8 kmh SW 7.0 mph11.3 kmh 29.33 in993.2 mb 0.10 in2.5 mm 0.00 in0.0 mm 0.62 in15.7 mm
03:30 AM 62.9°F17.2°C 60.5°F15.8°C 92% 8.0 mph SSW12.9 kmh SSW 12.0 mph19.3 kmh 29.33 in993.2 mb 0.10 in2.5 mm 0.00 in0.0 mm 0.62 in15.7 mm
03:35 AM 62.8°F17.1°C 60.8°F16.0°C 93% 4.0 mph SSW6.4 kmh SSW 12.0 mph19.3 kmh 29.34 in993.6 mb 0.11 in2.8 mm 0.12 in3.0 mm 0.63 in16.0 mm
03:40 AM 62.9°F17.2°C 60.9°F16.1°C 93% 2.0 mph SSW3.2 kmh SSW 3.0 mph4.8 kmh 29.34 in993.6 mb 0.07 in1.8 mm 0.00 in0.0 mm 0.63 in16.0 mm
03:45 AM 62.8°F17.1°C 60.8°F16.0°C 93% Calm Calm 6.0 mph9.7 kmh 29.34 in993.6 mb 0.07 in1.8 mm 0.00 in0.0 mm 0.63 in16.0 mm
03:50 AM 62.9°F17.2°C 60.9°F16.1°C 93% Calm Calm 6.0 mph9.7 kmh 29.36 in994.2 mb 0.08 in2.0 mm 0.12 in3.0 mm 0.64 in16.3 mm
03:55 AM 62.9°F17.2°C 60.9°F16.1°C 93% Calm Calm -- 29.37 in994.6 mb 0.06 in1.5 mm 0.00 in0.0 mm 0.64 in16.3 mm
04:00 AM 62.9°F17.2°C 60.9°F16.1°C 93% 3.0 mph S4.8 kmh S 5.0 mph8.0 kmh 29.36 in994.2 mb 0.06 in1.5 mm 0.00 in0.0 mm 0.64 in16.3 mm
04:05 AM 62.9°F17.2°C 60.9°F16.1°C 93% Calm Calm 7.0 mph11.3 kmh 29.36 in994.2 mb 0.06 in1.5 mm 0.00 in0.0 mm 0.64 in16.3 mm
04:10 AM 62.5°F16.9°C 60.5°F15.8°C 93% 2.0 mph S3.2 kmh S 2.0 mph3.2 kmh 29.36 in994.2 mb 0.05 in1.3 mm 0.00 in0.0 mm 0.64 in16.3 mm
04:15 AM 62.2°F16.8°C 60.5°F15.8°C 94% 1.0 mph SSE1.6 kmh SSE 6.0 mph9.7 kmh 29.35 in993.9 mb 0.05 in1.3 mm 0.00 in0.0 mm 0.64 in16.3 mm
04:20 AM 62.2°F16.8°C 60.5°F15.8°C 94% 4.0 mph SSE6.4 kmh SSE 6.0 mph9.7 kmh 29.35 in993.9 mb 0.05 in1.3 mm 0.00 in0.0 mm 0.64 in16.3 mm
04:25 AM 62.4°F16.9°C 60.7°F15.9°C 94% 2.0 mph SSE3.2 kmh SSE 2.0 mph3.2 kmh 29.35 in993.9 mb 0.03 in0.8 mm 0.00 in0.0 mm 0.64 in16.3 mm
04:30 AM 62.3°F16.8°C 60.6°F15.9°C 94% 2.0 mph SSE3.2 kmh SSE 4.0 mph6.4 kmh 29.35 in993.9 mb 0.03 in0.8 mm 0.00 in0.0 mm 0.64 in16.3 mm
04:35 AM 62.2°F16.8°C 60.5°F15.8°C 94% 2.0 mph SSE3.2 kmh SSE 4.0 mph6.4 kmh 29.35 in993.9 mb 0.04 in1.0 mm 0.12 in3.0 mm 0.65 in16.5 mm
04:40 AM 62.2°F16.8°C 60.8°F16.0°C 95% 1.0 mph SSE1.6 kmh SSE 2.0 mph3.2 kmh 29.35 in993.9 mb 0.03 in0.8 mm 0.00 in0.0 mm 0.65 in16.5 mm
04:45 AM 62.2°F16.8°C 60.8°F16.0°C 95% 1.0 mph SSE1.6 kmh SSE 4.0 mph6.4 kmh 29.34 in993.6 mb 0.03 in0.8 mm 0.00 in0.0 mm 0.65 in16.5 mm
04:50 AM 62.0°F16.7°C 60.6°F15.9°C 95% Calm Calm 4.0 mph6.4 kmh 29.35 in993.9 mb 0.03 in0.8 mm 0.00 in0.0 mm 0.65 in16.5 mm
04:55 AM 62.0°F16.7°C 60.6°F15.9°C 95% 4.0 mph SSE6.4 kmh SSE 4.0 mph6.4 kmh 29.36 in994.2 mb 0.02 in0.5 mm 0.00 in0.0 mm 0.65 in16.5 mm
05:00 AM 62.0°F16.7°C 60.6°F15.9°C 95% 4.0 mph SSE6.4 kmh SSE 6.0 mph9.7 kmh 29.36 in994.2 mb 0.02 in0.5 mm 0.00 in0.0 mm 0.65 in16.5 mm
05:05 AM 61.8°F16.6°C 60.4°F15.8°C 95% 5.0 mph SSE8.0 kmh SSE 6.0 mph9.7 kmh 29.36 in994.2 mb 0.02 in0.5 mm 0.00 in0.0 mm 0.65 in16.5 mm
05:10 AM 61.5°F16.4°C 60.1°F15.6°C 95% Calm Calm 1.0 mph1.6 kmh 29.36 in994.2 mb 0.01 in0.3 mm 0.00 in0.0 mm 0.65 in16.5 mm
05:15 AM 61.4°F16.3°C 60.0°F15.6°C 95% 2.0 mph SSE3.2 kmh SSE 4.0 mph6.4 kmh 29.36 in994.2 mb 0.02 in0.5 mm 0.12 in3.0 mm 0.66 in16.8 mm
05:20 AM 61.1°F16.2°C 59.7°F15.4°C 95% 6.0 mph SSE9.7 kmh SSE 6.0 mph9.7 kmh 29.35 in993.9 mb 0.02 in0.5 mm 0.00 in0.0 mm 0.66 in16.8 mm
05:25 AM 60.8°F16.0°C 59.4°F15.2°C 95% 5.0 mph SSE8.0 kmh SSE 5.0 mph8.0 kmh 29.35 in993.9 mb 0.02 in0.5 mm 0.00 in0.0 mm 0.66 in16.8 mm
05:30 AM 60.9°F16.1°C 59.5°F15.3°C 95% 2.0 mph SSE3.2 kmh SSE 6.0 mph9.7 kmh 29.35 in993.9 mb 0.02 in0.5 mm 0.00 in0.0 mm 0.66 in16.8 mm
05:35 AM 61.0°F16.1°C 59.6°F15.3°C 95% Calm Calm 6.0 mph9.7 kmh 29.36 in994.2 mb 0.02 in0.5 mm 0.00 in0.0 mm 0.66 in16.8 mm
05:40 AM 61.0°F16.1°C 59.9°F15.5°C 96% Calm Calm -- 29.37 in994.6 mb 0.01 in0.3 mm 0.00 in0.0 mm 0.66 in16.8 mm
05:45 AM 61.1°F16.2°C 60.0°F15.6°C 96% Calm Calm -- 29.38 in994.9 mb 0.01 in0.3 mm 0.00 in0.0 mm 0.66 in16.8 mm
05:50 AM 61.1°F16.2°C 60.0°F15.6°C 96% Calm Calm -- 29.38 in994.9 mb 0.01 in0.3 mm 0.00 in0.0 mm 0.66 in16.8 mm
05:55 AM 61.2°F16.2°C 60.1°F15.6°C 96% Calm Calm -- 29.38 in994.9 mb 0.01 in0.3 mm 0.00 in0.0 mm 0.66 in16.8 mm
06:00 AM 61.4°F16.3°C 60.3°F15.7°C 96% 2.0 mph SSE3.2 kmh SSE 2.0 mph3.2 kmh 29.38 in994.9 mb 0.01 in0.3 mm 0.00 in0.0 mm 0.66 in16.8 mm
06:05 AM 61.5°F16.4°C 60.4°F15.8°C 96% 1.0 mph SSE1.6 kmh SSE 2.0 mph3.2 kmh 29.38 in994.9 mb 0.01 in0.3 mm 0.00 in0.0 mm 0.66 in16.8 mm
06:10 AM 61.4°F16.3°C 60.3°F15.7°C 96% Calm Calm -- 29.38 in994.9 mb 0.01 in0.3 mm 0.00 in0.0 mm 0.66 in16.8 mm
06:15 AM 61.2°F16.2°C 60.1°F15.6°C 96% 6.0 mph SSE9.7 kmh SSE 6.0 mph9.7 kmh 29.36 in994.2 mb 0.01 in0.3 mm 0.00 in0.0 mm 0.66 in16.8 mm
06:20 AM 61.0°F16.1°C 59.9°F15.5°C 96% 5.0 mph SE8.0 kmh SE 6.0 mph9.7 kmh 29.36 in994.2 mb 0.01 in0.3 mm 0.00 in0.0 mm 0.66 in16.8 mm
06:25 AM 61.0°F16.1°C 59.9°F15.5°C 96% 4.0 mph ENE6.4 kmh ENE 4.0 mph6.4 kmh 29.35 in993.9 mb 0.00 in0.0 mm 0.00 in0.0 mm 0.66 in16.8 mm
06:30 AM 61.0°F16.1°C 59.9°F15.5°C 96% 4.0 mph ENE6.4 kmh ENE 6.0 mph9.7 kmh 29.34 in993.6 mb 0.00 in0.0 mm 0.00 in0.0 mm 0.66 in16.8 mm
06:35 AM 61.0°F16.1°C 59.9°F15.5°C 96% 1.0 mph ENE1.6 kmh ENE 6.0 mph9.7 kmh 29.36 in994.2 mb 0.00 in0.0 mm 0.00 in0.0 mm 0.66 in16.8 mm
06:40 AM 61.2°F16.2°C 60.1°F15.6°C 96% 3.0 mph E4.8 kmh E 4.0 mph6.4 kmh 29.37 in994.6 mb 0.00 in0.0 mm 0.00 in0.0 mm 0.66 in16.8 mm
06:45 AM 61.5°F16.4°C 60.4°F15.8°C 96% 3.0 mph SE4.8 kmh SE 7.0 mph11.3 kmh 29.38 in994.9 mb 0.00 in0.0 mm 0.00 in0.0 mm 0.66 in16.8 mm
06:50 AM 61.6°F16.4°C 60.5°F15.8°C 96% 10.0 mph SSE16.1 kmh SSE 11.0 mph17.7 kmh 29.38 in994.9 mb 0.00 in0.0 mm 0.00 in0.0 mm 0.66 in16.8 mm
06:55 AM 61.6°F16.4°C 60.5°F15.8°C 96% 4.0 mph S6.4 kmh S 5.0 mph8.0 kmh 29.38 in994.9 mb 0.00 in0.0 mm 0.00 in0.0 mm 0.66 in16.8 mm
07:00 AM 62.5°F16.9°C 60.8°F16.0°C 94% 6.0 mph S9.7 kmh S 11.0 mph17.7 kmh 29.38 in994.9 mb 0.00 in0.0 mm 0.00 in0.0 mm 0.66 in16.8 mm
07:05 AM 62.9°F17.2°C 60.9°F16.1°C 93% 5.0 mph S8.0 kmh S 15.0 mph24.1 kmh 29.39 in995.3 mb 0.00 in0.0 mm 0.00 in0.0 mm 0.66 in16.8 mm
07:10 AM 63.0°F17.2°C 60.6°F15.9°C 92% 7.0 mph S11.3 kmh S 9.0 mph14.5 kmh 29.39 in995.3 mb 0.00 in0.0 mm 0.00 in0.0 mm 0.66 in16.8 mm
07:15 AM 63.1°F17.3°C 60.4°F15.8°C 91% 5.0 mph SE8.0 kmh SE 15.0 mph24.1 kmh 29.39 in995.3 mb 0.00 in0.0 mm 0.00 in0.0 mm 0.66 in16.8 mm
07:20 AM 63.2°F17.3°C 60.2°F15.7°C 90% 6.0 mph S9.7 kmh S 15.0 mph24.1 kmh 29.39 in995.3 mb 0.00 in0.0 mm 0.00 in0.0 mm 0.66 in16.8 mm
07:25 AM 63.2°F17.3°C 59.9°F15.5°C 89% 6.0 mph S9.7 kmh S 9.0 mph14.5 kmh 29.39 in995.3 mb 0.00 in0.0 mm 0.00 in0.0 mm 0.66 in16.8 mm
07:30 AM 63.3°F17.4°C 60.0°F15.6°C 89% 11.0 mph S17.7 kmh S 14.0 mph22.5 kmh 29.39 in995.3 mb 0.00 in0.0 mm 0.00 in0.0 mm 0.66 in16.8 mm
07:35 AM 63.5°F17.5°C 59.9°F15.5°C 88% 9.0 mph SSE14.5 kmh SSE 14.0 mph22.5 kmh 29.39 in995.3 mb 0.00 in0.0 mm 0.00 in0.0 mm 0.66 in16.8 mm
07:40 AM 63.7°F17.6°C 59.8°F15.4°C 87% 9.0 mph SSW14.5 kmh SSW 9.0 mph14.5 kmh 29.39 in995.3 mb 0.00 in0.0 mm 0.00 in0.0 mm 0.66 in16.8 mm
07:45 AM 63.7°F17.6°C 59.4°F15.2°C 86% 4.0 mph SSW6.4 kmh SSW 12.0 mph19.3 kmh 29.39 in995.3 mb 0.00 in0.0 mm 0.00 in0.0 mm 0.66 in16.8 mm
07:50 AM 63.6°F17.6°C 58.7°F14.8°C 84% 11.0 mph S17.7 kmh S 18.0 mph29.0 kmh 29.40 in995.6 mb 0.00 in0.0 mm 0.00 in0.0 mm 0.66 in16.8 mm
07:55 AM 63.8°F17.7°C 58.2°F14.6°C 82% 14.0 mph SSW22.5 kmh SSW 14.0 mph22.5 kmh 29.40 in995.6 mb 0.00 in0.0 mm 0.00 in0.0 mm 0.66 in16.8 mm
08:00 AM 63.7°F17.6°C 57.8°F14.3°C 81% 9.0 mph SSW14.5 kmh SSW 19.0 mph30.6 kmh 29.40 in995.6 mb 0.00 in0.0 mm 0.00 in0.0 mm 0.66 in16.8 mm
08:05 AM 63.6°F17.6°C 57.7°F14.3°C 81% 10.0 mph SSW16.1 kmh SSW 19.0 mph30.6 kmh 29.40 in995.6 mb 0.00 in0.0 mm 0.00 in0.0 mm 0.66 in16.8 mm
08:10 AM 64.2°F17.9°C 57.9°F14.4°C 80% 6.0 mph S9.7 kmh S 6.0 mph9.7 kmh 29.40 in995.6 mb 0.00 in0.0 mm 0.00 in0.0 mm 0.66 in16.8 mm
08:15 AM 64.7°F18.2°C 57.7°F14.3°C 78% 8.0 mph SW12.9 kmh SW 21.0 mph33.8 kmh 29.41 in995.9 mb 0.00 in0.0 mm 0.00 in0.0 mm 0.66 in16.8 mm
08:20 AM 64.9°F18.3°C 57.9°F14.4°C 78% 15.0 mph SSW24.1 kmh SSW 23.0 mph37.0 kmh 29.41 in995.9 mb 0.00 in0.0 mm 0.00 in0.0 mm 0.66 in16.8 mm
08:25 AM 65.2°F18.4°C 57.1°F13.9°C 75% 12.0 mph SW19.3 kmh SW 14.0 mph22.5 kmh 29.41 in995.9 mb 0.00 in0.0 mm 0.00 in0.0 mm 0.66 in16.8 mm
08:30 AM 65.3°F18.5°C 56.8°F13.8°C 74% 18.0 mph SW29.0 kmh SW 20.0 mph32.2 kmh 29.41 in995.9 mb 0.00 in0.0 mm 0.00 in0.0 mm 0.66 in16.8 mm
08:35 AM 65.4°F18.6°C 56.2°F13.4°C 72% 18.0 mph SSW29.0 kmh SSW 32.0 mph51.5 kmh 29.42 in996.3 mb 0.00 in0.0 mm 0.00 in0.0 mm 0.66 in16.8 mm
08:40 AM 64.9°F18.3°C 54.1°F12.3°C 68% 15.0 mph SSW24.1 kmh SSW 16.0 mph25.7 kmh 29.43 in996.6 mb 0.00 in0.0 mm 0.00 in0.0 mm 0.66 in16.8 mm
08:45 AM 64.2°F17.9°C 53.8°F12.1°C 69% 20.0 mph WSW32.2 kmh WSW 30.0 mph48.3 kmh 29.43 in996.6 mb 0.00 in0.0 mm 0.00 in0.0 mm 0.66 in16.8 mm
08:50 AM 62.2°F16.8°C 51.9°F11.1°C 69% 19.0 mph WSW30.6 kmh WSW 37.0 mph59.5 kmh 29.45 in997.3 mb 0.00 in0.0 mm 0.00 in0.0 mm 0.66 in16.8 mm
08:55 AM 60.4°F15.8°C 50.2°F10.1°C 69% 11.0 mph WSW17.7 kmh WSW 16.0 mph25.7 kmh 29.45 in997.3 mb 0.00 in0.0 mm 0.00 in0.0 mm 0.66 in16.8 mm
09:00 AM 59.6°F15.3°C 50.2°F10.1°C 71% 18.0 mph SW29.0 kmh SW 31.0 mph49.9 kmh 29.45 in997.3 mb 0.00 in0.0 mm 0.00 in0.0 mm 0.66 in16.8 mm
09:05 AM 59.8°F15.4°C 50.4°F10.2°C 71% 15.0 mph SW24.1 kmh SW 32.0 mph51.5 kmh 29.46 in997.6 mb 0.00 in0.0 mm 0.00 in0.0 mm 0.66 in16.8 mm
09:10 AM 60.2°F15.7°C 50.8°F10.4°C 71% 13.0 mph SW20.9 kmh SW 13.0 mph20.9 kmh 29.46 in997.6 mb 0.00 in0.0 mm 0.00 in0.0 mm 0.66 in16.8 mm
09:15 AM 60.8°F16.0°C 50.6°F10.3°C 69% 16.0 mph SW25.7 kmh SW 18.0 mph29.0 kmh 29.47 in998.0 mb 0.00 in0.0 mm 0.00 in0.0 mm 0.66 in16.8 mm
09:20 AM 61.3°F16.3°C 50.3°F10.2°C 67% 15.0 mph SW24.1 kmh SW 27.0 mph43.5 kmh 29.47 in998.0 mb 0.00 in0.0 mm 0.00 in0.0 mm 0.66 in16.8 mm
09:25 AM 61.4°F16.3°C 50.0°F10.0°C 66% 8.0 mph SW12.9 kmh SW 9.0 mph14.5 kmh 29.48 in998.3 mb 0.00 in0.0 mm 0.00 in0.0 mm 0.66 in16.8 mm
09:30 AM 61.3°F16.3°C 49.5°F9.7°C 65% 11.0 mph SW17.7 kmh SW 20.0 mph32.2 kmh 29.49 in998.6 mb 0.00 in0.0 mm 0.00 in0.0 mm 0.66 in16.8 mm
09:35 AM 61.3°F16.3°C 49.5°F9.7°C 65% 10.0 mph SW16.1 kmh SW 21.0 mph33.8 kmh 29.49 in998.6 mb 0.00 in0.0 mm 0.00 in0.0 mm 0.66 in16.8 mm
09:40 AM 61.6°F16.4°C 48.9°F9.4°C 63% 12.0 mph WSW19.3 kmh WSW 13.0 mph20.9 kmh 29.49 in998.6 mb 0.00 in0.0 mm 0.00 in0.0 mm 0.66 in16.8 mm
09:45 AM 61.9°F16.6°C 49.6°F9.8°C 64% 14.0 mph SW22.5 kmh SW 18.0 mph29.0 kmh 29.50 in999.0 mb 0.00 in0.0 mm 0.00 in0.0 mm 0.66 in16.8 mm
09:50 AM 62.0°F16.7°C 48.0°F8.9°C 60% 14.0 mph SW22.5 kmh SW 23.0 mph37.0 kmh 29.50 in999.0 mb 0.00 in0.0 mm 0.00 in0.0 mm 0.66 in16.8 mm
09:55 AM 61.9°F16.6°C 47.9°F8.8°C 60% 24.0 mph SSW38.6 kmh SSW 25.0 mph40.2 kmh 29.50 in999.0 mb 0.00 in0.0 mm 0.00 in0.0 mm 0.66 in16.8 mm
10:00 AM 62.0°F16.7°C 48.0°F8.9°C 60% 11.0 mph SSW17.7 kmh SSW 28.0 mph45.1 kmh 29.50 in999.0 mb 0.00 in0.0 mm 0.00 in0.0 mm 0.66 in16.8 mm
10:05 AM 61.9°F16.6°C 47.4°F8.6°C 59% 10.0 mph SW16.1 kmh SW 28.0 mph45.1 kmh 29.51 in999.3 mb 0.00 in0.0 mm 0.00 in0.0 mm 0.66 in16.8 mm
10:10 AM 61.9°F16.6°C 47.4°F8.6°C 59% 7.0 mph SW11.3 kmh SW 18.0 mph29.0 kmh 29.51 in999.3 mb 0.00 in0.0 mm 0.00 in0.0 mm 0.66 in16.8 mm
10:15 AM 62.0°F16.7°C 47.1°F8.4°C 58% 13.0 mph SW20.9 kmh SW 22.0 mph35.4 kmh 29.51 in999.3 mb 0.00 in0.0 mm 0.00 in0.0 mm 0.66 in16.8 mm
10:20 AM 62.2°F16.8°C 47.3°F8.5°C 58% 11.0 mph SW17.7 kmh SW 24.0 mph38.6 kmh 29.52 in999.7 mb 0.00 in0.0 mm 0.00 in0.0 mm 0.66 in16.8 mm
10:25 AM 62.4°F16.9°C 46.0°F7.8°C 55% 22.0 mph SSW35.4 kmh SSW 22.0 mph35.4 kmh 29.52 in999.7 mb 0.00 in0.0 mm 0.00 in0.0 mm 0.66 in16.8 mm
10:30 AM 62.2°F16.8°C 44.4°F6.9°C 52% 19.0 mph S30.6 kmh S 27.0 mph43.5 kmh 29.52 in999.7 mb 0.00 in0.0 mm 0.00 in0.0 mm 0.66 in16.8 mm
10:35 AM 62.1°F16.7°C 42.7°F5.9°C 49% 24.0 mph SSW38.6 kmh SSW 33.0 mph53.1 kmh 29.52 in999.7 mb 0.00 in0.0 mm 0.00 in0.0 mm 0.66 in16.8 mm
10:40 AM 61.7°F16.5°C 40.7°F4.8°C 46% 16.0 mph SW25.7 kmh SW 20.0 mph32.2 kmh 29.52 in999.7 mb 0.00 in0.0 mm 0.00 in0.0 mm 0.66 in16.8 mm
10:45 AM 61.4°F16.3°C 40.5°F4.7°C 46% 20.0 mph SSW32.2 kmh SSW 37.0 mph59.5 kmh 29.53 in1000.0 mb 0.00 in0.0 mm 0.00 in0.0 mm 0.66 in16.8 mm
10:50 AM 61.2°F16.2°C 41.4°F5.2°C 48% 21.0 mph SW33.8 kmh SW 37.0 mph59.5 kmh 29.54 in1000.3 mb 0.00 in0.0 mm 0.00 in0.0 mm 0.66 in16.8 mm
10:55 AM 61.5°F16.4°C 41.7°F5.4°C 48% 23.0 mph SW37.0 kmh SW 24.0 mph38.6 kmh 29.54 in1000.3 mb 0.00 in0.0 mm 0.00 in0.0 mm 0.66 in16.8 mm
11:00 AM 61.4°F16.3°C 41.6°F5.3°C 48% 11.0 mph SW17.7 kmh SW 25.0 mph40.2 kmh 29.54 in1000.3 mb 0.00 in0.0 mm 0.00 in0.0 mm 0.66 in16.8 mm
11:05 AM 61.5°F16.4°C 42.7°F5.9°C 50% 8.0 mph SW12.9 kmh SW 25.0 mph40.2 kmh 29.55 in1000.7 mb 0.00 in0.0 mm 0.00 in0.0 mm 0.66 in16.8 mm
11:10 AM 61.8°F16.6°C 43.0°F6.1°C 50% 13.0 mph SSW20.9 kmh SSW 22.0 mph35.4 kmh 29.55 in1000.7 mb 0.00 in0.0 mm 0.00 in0.0 mm 0.66 in16.8 mm
11:15 AM 61.7°F16.5°C 42.4°F5.8°C 49% 11.0 mph SW17.7 kmh SW 28.0 mph45.1 kmh 29.55 in1000.7 mb 0.00 in0.0 mm 0.00 in0.0 mm 0.66 in16.8 mm
11:20 AM 61.5°F16.4°C 40.6°F4.8°C 46% 18.0 mph SW29.0 kmh SW 31.0 mph49.9 kmh 29.55 in1000.7 mb 0.00 in0.0 mm 0.00 in0.0 mm 0.66 in16.8 mm
11:25 AM 61.2°F16.2°C 40.8°F4.9°C 47% 14.0 mph SW22.5 kmh SW 16.0 mph25.7 kmh 29.56 in1001.0 mb 0.00 in0.0 mm 0.00 in0.0 mm 0.66 in16.8 mm
11:30 AM 61.5°F16.4°C 40.6°F4.8°C 46% 16.0 mph SW25.7 kmh SW 30.0 mph48.3 kmh 29.56 in1001.0 mb 0.00 in0.0 mm 0.00 in0.0 mm 0.66 in16.8 mm
11:35 AM 61.6°F16.4°C 40.6°F4.8°C 46% 22.0 mph SSW35.4 kmh SSW 30.0 mph48.3 kmh 29.55 in1000.7 mb 0.00 in0.0 mm 0.00 in0.0 mm 0.66 in16.8 mm
11:40 AM 61.7°F16.5°C 41.3°F5.2°C 47% 15.0 mph SW24.1 kmh SW 21.0 mph33.8 kmh 29.56 in1001.0 mb 0.00 in0.0 mm 0.00 in0.0 mm 0.66 in16.8 mm
11:45 AM 61.7°F16.5°C 40.7°F4.8°C 46% 25.0 mph SSW40.2 kmh SSW 30.0 mph48.3 kmh 29.56 in1001.0 mb 0.00 in0.0 mm 0.00 in0.0 mm 0.66 in16.8 mm
11:50 AM 62.0°F16.7°C 42.1°F5.6°C 48% 11.0 mph SSW17.7 kmh SSW 32.0 mph51.5 kmh 29.57 in1001.4 mb 0.00 in0.0 mm 0.00 in0.0 mm 0.66 in16.8 mm
11:55 AM 61.8°F16.6°C 41.9°F5.5°C 48% 12.0 mph SW19.3 kmh SW 18.0 mph29.0 kmh 29.57 in1001.4 mb 0.00 in0.0 mm 0.00 in0.0 mm 0.66 in16.8 mm
12:00 PM 62.2°F16.8°C 41.7°F5.4°C 47% 7.0 mph SW11.3 kmh SW 19.0 mph30.6 kmh 29.57 in1001.4 mb 0.00 in0.0 mm 0.00 in0.0 mm 0.66 in16.8 mm
12:05 PM 62.5°F16.9°C 41.5°F5.3°C 46% 13.0 mph SW20.9 kmh SW 27.0 mph43.5 kmh 29.58 in1001.7 mb 0.00 in0.0 mm 0.00 in0.0 mm 0.66 in16.8 mm
12:10 PM 62.1°F16.7°C 41.7°F5.4°C 47% 18.0 mph SW29.0 kmh SW 22.0 mph35.4 kmh 29.57 in1001.4 mb 0.00 in0.0 mm 0.00 in0.0 mm 0.66 in16.8 mm
12:15 PM 61.8°F16.6°C 40.8°F4.9°C 46% 16.0 mph SW25.7 kmh SW 33.0 mph53.1 kmh 29.57 in1001.4 mb 0.00 in0.0 mm 0.00 in0.0 mm 0.66 in16.8 mm
12:20 PM 62.1°F16.7°C 41.7°F5.4°C 47% 27.0 mph SW43.5 kmh SW 35.0 mph56.3 kmh 29.57 in1001.4 mb 0.00 in0.0 mm 0.00 in0.0 mm 0.66 in16.8 mm
12:25 PM 62.2°F16.8°C 40.6°F4.8°C 45% 29.0 mph S46.7 kmh S 29.0 mph46.7 kmh 29.58 in1001.7 mb 0.00 in0.0 mm 0.00 in0.0 mm 0.66 in16.8 mm
12:30 PM 62.2°F16.8°C 39.5°F4.2°C 43% 22.0 mph S35.4 kmh S 32.0 mph51.5 kmh 29.58 in1001.7 mb 0.00 in0.0 mm 0.00 in0.0 mm 0.66 in16.8 mm
12:35 PM 62.0°F16.7°C 40.4°F4.7°C 45% 22.0 mph SSW35.4 kmh SSW 35.0 mph56.3 kmh 29.58 in1001.7 mb 0.00 in0.0 mm 0.00 in0.0 mm 0.66 in16.8 mm
12:40 PM 61.9°F16.6°C 39.8°F4.3°C 44% 14.0 mph SW22.5 kmh SW 21.0 mph33.8 kmh 29.59 in1002.0 mb 0.00 in0.0 mm 0.00 in0.0 mm 0.66 in16.8 mm
12:45 PM 61.7°F16.5°C 39.0°F3.9°C 43% 16.0 mph SSW25.7 kmh SSW 38.0 mph61.2 kmh 29.60 in1002.4 mb 0.00 in0.0 mm 0.00 in0.0 mm 0.66 in16.8 mm
12:50 PM 61.8°F16.6°C 40.3°F4.6°C 45% 15.0 mph SW24.1 kmh SW 38.0 mph61.2 kmh 29.60 in1002.4 mb 0.00 in0.0 mm 0.00 in0.0 mm 0.66 in16.8 mm
12:55 PM 62.5°F16.9°C 41.5°F5.3°C 46% 8.0 mph SSW12.9 kmh SSW 14.0 mph22.5 kmh 29.61 in1002.7 mb 0.00 in0.0 mm 0.00 in0.0 mm 0.66 in16.8 mm
01:00 PM 62.3°F16.8°C 39.5°F4.2°C 43% 18.0 mph SW29.0 kmh SW 26.0 mph41.8 kmh 29.61 in1002.7 mb 0.00 in0.0 mm 0.00 in0.0 mm 0.66 in16.8 mm
01:05 PM 61.9°F16.6°C 40.9°F4.9°C 46% 15.0 mph SSW24.1 kmh SSW 26.0 mph41.8 kmh 29.61 in1002.7 mb 0.00 in0.0 mm 0.00 in0.0 mm 0.66 in16.8 mm
01:10 PM 61.6°F16.4°C 40.6°F4.8°C 46% 17.0 mph SW27.4 kmh SW 17.0 mph27.4 kmh 29.61 in1002.7 mb 0.00 in0.0 mm 0.00 in0.0 mm 0.66 in16.8 mm
01:15 PM 61.6°F16.4°C 41.7°F5.4°C 48% 12.0 mph SSW19.3 kmh SSW 23.0 mph37.0 kmh 29.62 in1003.0 mb 0.00 in0.0 mm 0.00 in0.0 mm 0.66 in16.8 mm
01:20 PM 61.6°F16.4°C 41.7°F5.4°C 48% 11.0 mph SW17.7 kmh SW 29.0 mph46.7 kmh 29.62 in1003.0 mb 0.00 in0.0 mm 0.00 in0.0 mm 0.66 in16.8 mm
01:25 PM 61.7°F16.5°C 40.7°F4.8°C 46% 13.0 mph SW20.9 kmh SW 21.0 mph33.8 kmh 29.61 in1002.7 mb 0.00 in0.0 mm 0.00 in0.0 mm 0.66 in16.8 mm
01:30 PM 61.2°F16.2°C 40.8°F4.9°C 47% 16.0 mph WSW25.7 kmh WSW 23.0 mph37.0 kmh 29.62 in1003.0 mb 0.00 in0.0 mm 0.00 in0.0 mm 0.66 in16.8 mm
01:35 PM 60.7°F15.9°C 40.9°F4.9°C 48% 26.0 mph WSW41.8 kmh WSW 31.0 mph49.9 kmh 29.61 in1002.7 mb 0.00 in0.0 mm 0.00 in0.0 mm 0.66 in16.8 mm
01:40 PM 60.9°F16.1°C 42.7°F5.9°C 51% 12.0 mph SW19.3 kmh SW 13.0 mph20.9 kmh 29.63 in1003.4 mb 0.00 in0.0 mm 0.00 in0.0 mm 0.66 in16.8 mm
01:45 PM 60.6°F15.9°C 39.7°F4.3°C 46% 11.0 mph SSW17.7 kmh SSW 28.0 mph45.1 kmh 29.63 in1003.4 mb 0.00 in0.0 mm 0.00 in0.0 mm 0.66 in16.8 mm
01:50 PM 60.8°F16.0°C 40.5°F4.7°C 47% 23.0 mph SW37.0 kmh SW 28.0 mph45.1 kmh 29.63 in1003.4 mb 0.00 in0.0 mm 0.00 in0.0 mm 0.66 in16.8 mm
01:55 PM 60.4°F15.8°C 39.0°F3.9°C 45% 18.0 mph SSW29.0 kmh SSW 18.0 mph29.0 kmh 29.64 in1003.7 mb 0.00 in0.0 mm 0.00 in0.0 mm 0.66 in16.8 mm
02:00 PM 60.4°F15.8°C 40.1°F4.5°C 47% 14.0 mph SW22.5 kmh SW 25.0 mph40.2 kmh 29.63 in1003.4 mb 0.00 in0.0 mm 0.00 in0.0 mm 0.66 in16.8 mm
02:05 PM 60.3°F15.7°C 40.6°F4.8°C 48% 18.0 mph SSW29.0 kmh SSW 29.0 mph46.7 kmh 29.63 in1003.4 mb 0.00 in0.0 mm 0.00 in0.0 mm 0.66 in16.8 mm
02:10 PM 60.4°F15.8°C 42.7°F5.9°C 52% 12.0 mph SW19.3 kmh SW 12.0 mph19.3 kmh 29.64 in1003.7 mb 0.00 in0.0 mm 0.00 in0.0 mm 0.66 in16.8 mm
02:15 PM 60.0°F15.6°C 40.8°F4.9°C 49% 17.0 mph SW27.4 kmh SW 28.0 mph45.1 kmh 29.65 in1004.1 mb 0.00 in0.0 mm 0.00 in0.0 mm 0.66 in16.8 mm
02:20 PM 59.8°F15.4°C 40.1°F4.5°C 48% 12.0 mph WSW19.3 kmh WSW 28.0 mph45.1 kmh 29.64 in1003.7 mb 0.00 in0.0 mm 0.00 in0.0 mm 0.66 in16.8 mm
02:25 PM 59.8°F15.4°C 40.6°F4.8°C 49% 13.0 mph SW20.9 kmh SW 13.0 mph20.9 kmh 29.64 in1003.7 mb 0.00 in0.0 mm 0.00 in0.0 mm 0.66 in16.8 mm
02:30 PM 60.0°F15.6°C 42.3°F5.7°C 52% 12.0 mph SW19.3 kmh SW 23.0 mph37.0 kmh 29.64 in1003.7 mb 0.00 in0.0 mm 0.00 in0.0 mm 0.66 in16.8 mm
02:35 PM 59.9°F15.5°C 40.7°F4.8°C 49% 23.0 mph WSW37.0 kmh WSW 23.0 mph37.0 kmh 29.65 in1004.1 mb 0.00 in0.0 mm 0.00 in0.0 mm 0.66 in16.8 mm
02:40 PM 59.7°F15.4°C 40.0°F4.4°C 48% 13.0 mph SW20.9 kmh SW 16.0 mph25.7 kmh 29.65 in1004.1 mb 0.00 in0.0 mm 0.00 in0.0 mm 0.66 in16.8 mm
02:45 PM 59.4°F15.2°C 39.7°F4.3°C 48% 20.0 mph SW32.2 kmh SW 20.0 mph32.2 kmh 29.66 in1004.4 mb 0.00 in0.0 mm 0.00 in0.0 mm 0.66 in16.8 mm
02:50 PM 59.1°F15.1°C 38.4°F3.6°C 46% 12.0 mph SW19.3 kmh SW 24.0 mph38.6 kmh 29.66 in1004.4 mb 0.00 in0.0 mm 0.00 in0.0 mm 0.66 in16.8 mm
02:55 PM 59.4°F15.2°C 40.8°F4.9°C 50% 13.0 mph WSW20.9 kmh WSW 18.0 mph29.0 kmh 29.66 in1004.4 mb 0.00 in0.0 mm 0.00 in0.0 mm 0.66 in16.8 mm
03:00 PM 59.2°F15.1°C 41.1°F5.1°C 51% 16.0 mph SW25.7 kmh SW 22.0 mph35.4 kmh 29.66 in1004.4 mb 0.00 in0.0 mm 0.00 in0.0 mm 0.66 in16.8 mm
03:05 PM 59.0°F15.0°C 41.4°F5.2°C 52% 14.0 mph SW22.5 kmh SW 22.0 mph35.4 kmh 29.67 in1004.7 mb 0.00 in0.0 mm 0.00 in0.0 mm 0.66 in16.8 mm
03:10 PM 59.1°F15.1°C 38.9°F3.8°C 47% 17.0 mph SW27.4 kmh SW 23.0 mph37.0 kmh 29.67 in1004.7 mb 0.00 in0.0 mm 0.00 in0.0 mm 0.66 in16.8 mm
03:15 PM 58.8°F14.9°C 40.2°F4.6°C 50% 15.0 mph SW24.1 kmh SW 23.0 mph37.0 kmh 29.67 in1004.7 mb 0.00 in0.0 mm 0.00 in0.0 mm 0.66 in16.8 mm
03:20 PM 58.6°F14.8°C 40.6°F4.8°C 51% 14.0 mph SW22.5 kmh SW 30.0 mph48.3 kmh 29.67 in1004.7 mb 0.00 in0.0 mm 0.00 in0.0 mm 0.66 in16.8 mm
03:25 PM 58.3°F14.6°C 39.8°F4.3°C 50% 16.0 mph SW25.7 kmh SW 16.0 mph25.7 kmh 29.68 in1005.1 mb 0.00 in0.0 mm 0.00 in0.0 mm 0.66 in16.8 mm
03:30 PM 58.6°F14.8°C 38.5°F3.6°C 47% 14.0 mph SW22.5 kmh SW 25.0 mph40.2 kmh 29.68 in1005.1 mb 0.00 in0.0 mm 0.00 in0.0 mm 0.66 in16.8 mm
03:35 PM 58.7°F14.8°C 39.1°F3.9°C 48% 16.0 mph SW25.7 kmh SW 25.0 mph40.2 kmh 29.68 in1005.1 mb 0.00 in0.0 mm 0.00 in0.0 mm 0.66 in16.8 mm
03:40 PM 58.3°F14.6°C 38.2°F3.4°C 47% 23.0 mph SW37.0 kmh SW 30.0 mph48.3 kmh 29.68 in1005.1 mb 0.00 in0.0 mm 0.00 in0.0 mm 0.66 in16.8 mm
03:45 PM 58.4°F14.7°C 39.3°F4.1°C 49% 16.0 mph WSW25.7 kmh WSW 30.0 mph48.3 kmh 29.69 in1005.4 mb 0.00 in0.0 mm 0.00 in0.0 mm 0.66 in16.8 mm
03:50 PM 58.3°F14.6°C 38.7°F3.7°C 48% 12.0 mph SW19.3 kmh SW 30.0 mph48.3 kmh 29.69 in1005.4 mb 0.00 in0.0 mm 0.00 in0.0 mm 0.66 in16.8 mm
03:55 PM 58.1°F14.5°C 39.1°F3.9°C 49% 17.0 mph SSW27.4 kmh SSW 17.0 mph27.4 kmh 29.69 in1005.4 mb 0.00 in0.0 mm 0.00 in0.0 mm 0.66 in16.8 mm
04:00 PM 57.9°F14.4°C 38.9°F3.8°C 49% 11.0 mph SW17.7 kmh SW 33.0 mph53.1 kmh 29.69 in1005.4 mb 0.00 in0.0 mm 0.00 in0.0 mm 0.66 in16.8 mm
04:05 PM 57.9°F14.4°C 39.9°F4.4°C 51% 14.0 mph SSW22.5 kmh SSW 33.0 mph53.1 kmh 29.69 in1005.4 mb 0.00 in0.0 mm 0.00 in0.0 mm 0.66 in16.8 mm
04:10 PM 57.9°F14.4°C 39.4°F4.1°C 50% 12.0 mph SW19.3 kmh SW 12.0 mph19.3 kmh 29.70 in1005.8 mb 0.00 in0.0 mm 0.00 in0.0 mm 0.66 in16.8 mm
04:15 PM 58.0°F14.4°C 39.0°F3.9°C 49% 14.0 mph WSW22.5 kmh WSW 22.0 mph35.4 kmh 29.70 in1005.8 mb 0.00 in0.0 mm 0.00 in0.0 mm 0.66 in16.8 mm
04:20 PM 57.6°F14.2°C 39.1°F3.9°C 50% 24.0 mph WSW38.6 kmh WSW 28.0 mph45.1 kmh 29.71 in1006.1 mb 0.00 in0.0 mm 0.00 in0.0 mm 0.66 in16.8 mm
04:25 PM 57.3°F14.1°C 38.3°F3.5°C 49% 15.0 mph SW24.1 kmh SW 23.0 mph37.0 kmh 29.71 in1006.1 mb 0.00 in0.0 mm 0.00 in0.0 mm 0.66 in16.8 mm
04:30 PM 57.4°F14.1°C 39.9°F4.4°C 52% 14.0 mph SSW22.5 kmh SSW 24.0 mph38.6 kmh 29.72 in1006.4 mb 0.00 in0.0 mm 0.00 in0.0 mm 0.66 in16.8 mm
04:35 PM 57.0°F13.9°C 38.6°F3.7°C 50% 23.0 mph SW37.0 kmh SW 35.0 mph56.3 kmh 29.72 in1006.4 mb 0.00 in0.0 mm 0.00 in0.0 mm 0.66 in16.8 mm
04:40 PM 56.5°F13.6°C 38.1°F3.4°C 50% 15.0 mph SW24.1 kmh SW 22.0 mph35.4 kmh 29.73 in1006.8 mb 0.00 in0.0 mm 0.00 in0.0 mm 0.66 in16.8 mm
04:45 PM 56.0°F13.3°C 38.6°F3.7°C 52% 20.0 mph SSW32.2 kmh SSW 31.0 mph49.9 kmh 29.73 in1006.8 mb 0.00 in0.0 mm 0.00 in0.0 mm 0.66 in16.8 mm
04:50 PM 56.0°F13.3°C 40.1°F4.5°C 55% 22.0 mph SW35.4 kmh SW 37.0 mph59.5 kmh 29.74 in1007.1 mb 0.00 in0.0 mm 0.00 in0.0 mm 0.66 in16.8 mm
04:55 PM 55.9°F13.3°C 38.6°F3.7°C 52% 21.0 mph SW33.8 kmh SW 23.0 mph37.0 kmh 29.74 in1007.1 mb 0.00 in0.0 mm 0.00 in0.0 mm 0.66 in16.8 mm
05:00 PM 55.5°F13.1°C 37.7°F3.2°C 51% 24.0 mph SW38.6 kmh SW 31.0 mph49.9 kmh 29.75 in1007.5 mb 0.00 in0.0 mm 0.00 in0.0 mm 0.66 in16.8 mm
05:05 PM 55.2°F12.9°C 37.4°F3.0°C 51% 12.0 mph SW19.3 kmh SW 31.0 mph49.9 kmh 29.77 in1008.1 mb 0.00 in0.0 mm 0.00 in0.0 mm 0.66 in16.8 mm
05:10 PM 55.0°F12.8°C 38.2°F3.4°C 53% 16.0 mph SW25.7 kmh SW 19.0 mph30.6 kmh 29.77 in1008.1 mb 0.00 in0.0 mm 0.00 in0.0 mm 0.66 in16.8 mm
05:15 PM 54.8°F12.7°C 37.5°F3.1°C 52% 15.0 mph SSW24.1 kmh SSW 28.0 mph45.1 kmh 29.77 in1008.1 mb 0.00 in0.0 mm 0.00 in0.0 mm 0.66 in16.8 mm
05:20 PM 54.6°F12.6°C 37.8°F3.2°C 53% 14.0 mph SW22.5 kmh SW 28.0 mph45.1 kmh 29.77 in1008.1 mb 0.00 in0.0 mm 0.00 in0.0 mm 0.66 in16.8 mm
05:25 PM 54.4°F12.4°C 37.6°F3.1°C 53% 14.0 mph SW22.5 kmh SW 20.0 mph32.2 kmh 29.79 in1008.8 mb 0.00 in0.0 mm 0.00 in0.0 mm 0.66 in16.8 mm
05:30 PM 54.3°F12.4°C 37.1°F2.8°C 52% 13.0 mph SW20.9 kmh SW 29.0 mph46.7 kmh 29.79 in1008.8 mb 0.00 in0.0 mm 0.00 in0.0 mm 0.66 in16.8 mm
05:35 PM 54.1°F12.3°C 36.4°F2.4°C 51% 22.0 mph SW35.4 kmh SW 29.0 mph46.7 kmh 29.79 in1008.8 mb 0.00 in0.0 mm 0.00 in0.0 mm 0.66 in16.8 mm
05:40 PM 53.9°F12.2°C 37.2°F2.9°C 53% 14.0 mph SW22.5 kmh SW 19.0 mph30.6 kmh 29.80 in1009.1 mb 0.00 in0.0 mm 0.00 in0.0 mm 0.66 in16.8 mm
05:45 PM 53.8°F12.1°C 36.6°F2.6°C 52% 20.0 mph S32.2 kmh S 25.0 mph40.2 kmh 29.81 in1009.5 mb 0.00 in0.0 mm 0.00 in0.0 mm 0.66 in16.8 mm
05:50 PM 53.6°F12.0°C 37.4°F3.0°C 54% 12.0 mph SW19.3 kmh SW 30.0 mph48.3 kmh 29.81 in1009.5 mb 0.00 in0.0 mm 0.00 in0.0 mm 0.66 in16.8 mm
05:55 PM 53.5°F11.9°C 37.3°F2.9°C 54% 25.0 mph SW40.2 kmh SW 25.0 mph40.2 kmh 29.80 in1009.1 mb 0.00 in0.0 mm 0.00 in0.0 mm 0.66 in16.8 mm
06:00 PM 53.4°F11.9°C 37.2°F2.9°C 54% 16.0 mph SW25.7 kmh SW 28.0 mph45.1 kmh 29.81 in1009.5 mb 0.00 in0.0 mm 0.00 in0.0 mm 0.66 in16.8 mm
06:05 PM 53.2°F11.8°C 36.5°F2.5°C 53% 21.0 mph SW33.8 kmh SW 32.0 mph51.5 kmh 29.82 in1009.8 mb 0.00 in0.0 mm 0.00 in0.0 mm 0.66 in16.8 mm
06:10 PM 53.1°F11.7°C 36.4°F2.4°C 53% 16.0 mph SW25.7 kmh SW 16.0 mph25.7 kmh 29.83 in1010.2 mb 0.00 in0.0 mm 0.00 in0.0 mm 0.66 in16.8 mm
06:15 PM 53.1°F11.7°C 36.9°F2.7°C 54% 9.0 mph SW14.5 kmh SW 24.0 mph38.6 kmh 29.83 in1010.2 mb 0.00 in0.0 mm 0.00 in0.0 mm 0.66 in16.8 mm
06:20 PM 52.9°F11.6°C 36.7°F2.6°C 54% 13.0 mph SW20.9 kmh SW 30.0 mph48.3 kmh 29.83 in1010.2 mb 0.00 in0.0 mm 0.00 in0.0 mm 0.66 in16.8 mm
06:25 PM 52.7°F11.5°C 37.0°F2.8°C 55% 20.0 mph SSW32.2 kmh SSW 21.0 mph33.8 kmh 29.83 in1010.2 mb 0.00 in0.0 mm 0.00 in0.0 mm 0.66 in16.8 mm
06:30 PM 52.6°F11.4°C 36.9°F2.7°C 55% 14.0 mph SW22.5 kmh SW 28.0 mph45.1 kmh 29.82 in1009.8 mb 0.00 in0.0 mm 0.00 in0.0 mm 0.66 in16.8 mm
06:35 PM 52.4°F11.3°C 36.7°F2.6°C 55% 14.0 mph SW22.5 kmh SW 28.0 mph45.1 kmh 29.83 in1010.2 mb 0.00 in0.0 mm 0.00 in0.0 mm 0.66 in16.8 mm
06:40 PM 52.3°F11.3°C 37.1°F2.8°C 56% 9.0 mph SW14.5 kmh SW 14.0 mph22.5 kmh 29.84 in1010.5 mb 0.00 in0.0 mm 0.00 in0.0 mm 0.66 in16.8 mm
06:45 PM 52.2°F11.2°C 36.5°F2.5°C 55% 14.0 mph SW22.5 kmh SW 32.0 mph51.5 kmh 29.84 in1010.5 mb 0.00 in0.0 mm 0.00 in0.0 mm 0.66 in16.8 mm
06:50 PM 52.2°F11.2°C 36.5°F2.5°C 55% 10.0 mph SW16.1 kmh SW 32.0 mph51.5 kmh 29.84 in1010.5 mb 0.00 in0.0 mm 0.00 in0.0 mm 0.66 in16.8 mm
06:55 PM 52.1°F11.2°C 36.9°F2.7°C 56% 16.0 mph SW25.7 kmh SW 22.0 mph35.4 kmh 29.84 in1010.5 mb 0.00 in0.0 mm 0.00 in0.0 mm 0.66 in16.8 mm
07:00 PM 52.1°F11.2°C 36.4°F2.4°C 55% 11.0 mph SSW17.7 kmh SSW 28.0 mph45.1 kmh 29.85 in1010.8 mb 0.00 in0.0 mm 0.00 in0.0 mm 0.66 in16.8 mm
07:05 PM 52.1°F11.2°C 36.4°F2.4°C 55% 10.0 mph SW16.1 kmh SW 28.0 mph45.1 kmh 29.85 in1010.8 mb 0.00 in0.0 mm 0.00 in0.0 mm 0.66 in16.8 mm
07:10 PM 52.0°F11.1°C 36.4°F2.4°C 55% 13.0 mph S20.9 kmh S 19.0 mph30.6 kmh 29.85 in1010.8 mb 0.00 in0.0 mm 0.00 in0.0 mm 0.66 in16.8 mm
07:15 PM 51.9°F11.1°C 36.3°F2.4°C 55% 13.0 mph SW20.9 kmh SW 29.0 mph46.7 kmh 29.86 in1011.2 mb 0.00 in0.0 mm 0.00 in0.0 mm 0.66 in16.8 mm
07:20 PM 51.9°F11.1°C 35.8°F2.1°C 54% 18.0 mph SW29.0 kmh SW 29.0 mph46.7 kmh 29.85 in1010.8 mb 0.00 in0.0 mm 0.00 in0.0 mm 0.66 in16.8 mm
07:25 PM 52.0°F11.1°C 36.8°F2.7°C 56% 16.0 mph SW25.7 kmh SW 19.0 mph30.6 kmh 29.86 in1011.2 mb 0.00 in0.0 mm 0.00 in0.0 mm 0.66 in16.8 mm
07:30 PM 52.0°F11.1°C 35.9°F2.2°C 54% 20.0 mph SW32.2 kmh SW 24.0 mph38.6 kmh 29.86 in1011.2 mb 0.00 in0.0 mm 0.00 in0.0 mm 0.66 in16.8 mm
07:35 PM 51.9°F11.1°C 37.2°F2.9°C 57% 11.0 mph SW17.7 kmh SW 24.0 mph38.6 kmh 29.87 in1011.5 mb 0.00 in0.0 mm 0.00 in0.0 mm 0.66 in16.8 mm
07:40 PM 51.9°F11.1°C 36.3°F2.4°C 55% 8.0 mph SW12.9 kmh SW 14.0 mph22.5 kmh 29.87 in1011.5 mb 0.00 in0.0 mm 0.00 in0.0 mm 0.66 in16.8 mm
07:45 PM 51.9°F11.1°C 36.7°F2.6°C 56% 12.0 mph SW19.3 kmh SW 26.0 mph41.8 kmh 29.88 in1011.9 mb 0.00 in0.0 mm 0.00 in0.0 mm 0.66 in16.8 mm
07:50 PM 51.8°F11.0°C 36.2°F2.3°C 55% 18.0 mph SW29.0 kmh SW 26.0 mph41.8 kmh 29.88 in1011.9 mb 0.00 in0.0 mm 0.00 in0.0 mm 0.66 in16.8 mm
07:55 PM 51.8°F11.0°C 37.1°F2.8°C 57% 17.0 mph SSW27.4 kmh SSW 17.0 mph27.4 kmh 29.88 in1011.9 mb 0.00 in0.0 mm 0.00 in0.0 mm 0.66 in16.8 mm
08:00 PM 51.7°F10.9°C 37.4°F3.0°C 58% 16.0 mph SW25.7 kmh SW 20.0 mph32.2 kmh 29.89 in1012.2 mb 0.00 in0.0 mm 0.00 in0.0 mm 0.66 in16.8 mm
08:05 PM 51.7°F10.9°C 37.4°F3.0°C 58% 11.0 mph SSW17.7 kmh SSW 25.0 mph40.2 kmh 29.89 in1012.2 mb 0.00 in0.0 mm 0.00 in0.0 mm 0.66 in16.8 mm
08:10 PM 51.6°F10.9°C 37.3°F2.9°C 58% 12.0 mph SW19.3 kmh SW 15.0 mph24.1 kmh 29.89 in1012.2 mb 0.00 in0.0 mm 0.00 in0.0 mm 0.66 in16.8 mm
08:15 PM 51.6°F10.9°C 36.9°F2.7°C 57% 15.0 mph SSW24.1 kmh SSW 23.0 mph37.0 kmh 29.89 in1012.2 mb 0.00 in0.0 mm 0.00 in0.0 mm 0.66 in16.8 mm
08:20 PM 51.6°F10.9°C 37.3°F2.9°C 58% 7.0 mph SW11.3 kmh SW 23.0 mph37.0 kmh 29.90 in1012.5 mb 0.00 in0.0 mm 0.00 in0.0 mm 0.66 in16.8 mm
08:25 PM 51.6°F10.9°C 37.3°F2.9°C 58% 7.0 mph SW11.3 kmh SW 10.0 mph16.1 kmh 29.91 in1012.9 mb 0.00 in0.0 mm 0.00 in0.0 mm 0.66 in16.8 mm
08:30 PM 51.5°F10.8°C 36.3°F2.4°C 56% 10.0 mph SSW16.1 kmh SSW 23.0 mph37.0 kmh 29.91 in1012.9 mb 0.00 in0.0 mm 0.00 in0.0 mm 0.66 in16.8 mm
08:35 PM 51.4°F10.8°C 35.8°F2.1°C 55% 13.0 mph SSW20.9 kmh SSW 24.0 mph38.6 kmh 29.91 in1012.9 mb 0.00 in0.0 mm 0.00 in0.0 mm 0.66 in16.8 mm
08:40 PM 51.4°F10.8°C 36.7°F2.6°C 57% 7.0 mph SW11.3 kmh SW 10.0 mph16.1 kmh 29.92 in1013.2 mb 0.00 in0.0 mm 0.00 in0.0 mm 0.66 in16.8 mm
08:45 PM 51.4°F10.8°C 37.6°F3.1°C 59% 9.0 mph SSW14.5 kmh SSW 17.0 mph27.4 kmh 29.92 in1013.2 mb 0.00 in0.0 mm 0.00 in0.0 mm 0.66 in16.8 mm
08:50 PM 51.3°F10.7°C 36.6°F2.6°C 57% 10.0 mph SW16.1 kmh SW 20.0 mph32.2 kmh 29.92 in1013.2 mb 0.00 in0.0 mm 0.00 in0.0 mm 0.66 in16.8 mm
08:55 PM 51.3°F10.7°C 37.0°F2.8°C 58% 11.0 mph SW17.7 kmh SW 14.0 mph22.5 kmh 29.92 in1013.2 mb 0.00 in0.0 mm 0.00 in0.0 mm 0.66 in16.8 mm
09:00 PM 51.2°F10.7°C 36.5°F2.5°C 57% 9.0 mph SSW14.5 kmh SSW 22.0 mph35.4 kmh 29.93 in1013.5 mb 0.00 in0.0 mm 0.00 in0.0 mm 0.66 in16.8 mm
09:05 PM 51.2°F10.7°C 36.5°F2.5°C 57% 9.0 mph SW14.5 kmh SW 22.0 mph35.4 kmh 29.93 in1013.5 mb 0.00 in0.0 mm 0.00 in0.0 mm 0.66 in16.8 mm
09:10 PM 51.1°F10.6°C 36.9°F2.7°C 58% 10.0 mph SW16.1 kmh SW 10.0 mph16.1 kmh 29.94 in1013.9 mb 0.00 in0.0 mm 0.00 in0.0 mm 0.66 in16.8 mm
09:15 PM 51.1°F10.6°C 36.0°F2.2°C 56% 8.0 mph SSW12.9 kmh SSW 17.0 mph27.4 kmh 29.94 in1013.9 mb 0.00 in0.0 mm 0.00 in0.0 mm 0.66 in16.8 mm
09:20 PM 51.0°F10.6°C 36.8°F2.7°C 58% 5.0 mph SW8.0 kmh SW 17.0 mph27.4 kmh 29.95 in1014.2 mb 0.00 in0.0 mm 0.00 in0.0 mm 0.66 in16.8 mm
09:25 PM 51.0°F10.6°C 36.8°F2.7°C 58% 10.0 mph SSW16.1 kmh SSW 10.0 mph16.1 kmh 29.95 in1014.2 mb 0.00 in0.0 mm 0.00 in0.0 mm 0.66 in16.8 mm
09:30 PM 50.8°F10.4°C 37.0°F2.8°C 59% 9.0 mph SSW14.5 kmh SSW 14.0 mph22.5 kmh 29.95 in1014.2 mb 0.00 in0.0 mm 0.00 in0.0 mm 0.66 in16.8 mm
09:35 PM 50.7°F10.4°C 36.0°F2.2°C 57% 11.0 mph SSW17.7 kmh SSW 19.0 mph30.6 kmh 29.95 in1014.2 mb 0.00 in0.0 mm 0.00 in0.0 mm 0.66 in16.8 mm
09:40 PM 50.6°F10.3°C 36.4°F2.4°C 58% 11.0 mph SSW17.7 kmh SSW 13.0 mph20.9 kmh 29.96 in1014.6 mb 0.00 in0.0 mm 0.00 in0.0 mm 0.66 in16.8 mm
09:45 PM 50.6°F10.3°C 36.4°F2.4°C 58% 6.0 mph SSW9.7 kmh SSW 20.0 mph32.2 kmh 29.96 in1014.6 mb 0.00 in0.0 mm 0.00 in0.0 mm 0.66 in16.8 mm
09:50 PM 50.7°F10.4°C 36.9°F2.7°C 59% 6.0 mph SW9.7 kmh SW 20.0 mph32.2 kmh 29.96 in1014.6 mb 0.00 in0.0 mm 0.00 in0.0 mm 0.66 in16.8 mm
09:55 PM 50.5°F10.3°C 35.9°F2.2°C 57% 9.0 mph SSW14.5 kmh SSW 13.0 mph20.9 kmh 29.96 in1014.6 mb 0.00 in0.0 mm 0.00 in0.0 mm 0.66 in16.8 mm
10:00 PM 50.4°F10.2°C 35.8°F2.1°C 57% 14.0 mph SW22.5 kmh SW 17.0 mph27.4 kmh 29.96 in1014.6 mb 0.00 in0.0 mm 0.00 in0.0 mm 0.66 in16.8 mm
10:05 PM 50.4°F10.2°C 35.8°F2.1°C 57% 5.0 mph SW8.0 kmh SW 17.0 mph27.4 kmh 29.96 in1014.6 mb 0.00 in0.0 mm 0.00 in0.0 mm 0.66 in16.8 mm
10:10 PM 50.4°F10.2°C 35.8°F2.1°C 57% 13.0 mph SSW20.9 kmh SSW 15.0 mph24.1 kmh 29.96 in1014.6 mb 0.00 in0.0 mm 0.00 in0.0 mm 0.66 in16.8 mm
10:15 PM 50.4°F10.2°C 36.2°F2.3°C 58% 7.0 mph SW11.3 kmh SW 16.0 mph25.7 kmh 29.97 in1014.9 mb 0.00 in0.0 mm 0.00 in0.0 mm 0.66 in16.8 mm
10:20 PM 50.4°F10.2°C 36.2°F2.3°C 58% 10.0 mph SW16.1 kmh SW 17.0 mph27.4 kmh 29.97 in1014.9 mb 0.00 in0.0 mm 0.00 in0.0 mm 0.66 in16.8 mm
10:25 PM 50.3°F10.2°C 35.2°F1.8°C 56% 10.0 mph SSW16.1 kmh SSW 16.0 mph25.7 kmh 29.97 in1014.9 mb 0.00 in0.0 mm 0.00 in0.0 mm 0.66 in16.8 mm
10:30 PM 50.3°F10.2°C 36.1°F2.3°C 58% 6.0 mph SSW9.7 kmh SSW 17.0 mph27.4 kmh 29.98 in1015.2 mb 0.00 in0.0 mm 0.00 in0.0 mm 0.66 in16.8 mm
10:35 PM 50.2°F10.1°C 35.6°F2.0°C 57% 7.0 mph SSW11.3 kmh SSW 17.0 mph27.4 kmh 29.98 in1015.2 mb 0.00 in0.0 mm 0.00 in0.0 mm 0.66 in16.8 mm
10:40 PM 50.1°F10.1°C 35.9°F2.2°C 58% 5.0 mph SW8.0 kmh SW 5.0 mph8.0 kmh 29.98 in1015.2 mb 0.00 in0.0 mm 0.00 in0.0 mm 0.66 in16.8 mm
10:45 PM 49.9°F9.9°C 34.8°F1.6°C 56% 6.0 mph SSW9.7 kmh SSW 12.0 mph19.3 kmh 29.98 in1015.2 mb 0.00 in0.0 mm 0.00 in0.0 mm 0.66 in16.8 mm
10:50 PM 49.9°F9.9°C 35.7°F2.1°C 58% 9.0 mph SSW14.5 kmh SSW 13.0 mph20.9 kmh 29.99 in1015.6 mb 0.00 in0.0 mm 0.00 in0.0 mm 0.66 in16.8 mm
10:55 PM 49.7°F9.8°C 36.0°F2.2°C 59% 6.0 mph S9.7 kmh S 10.0 mph16.1 kmh 29.99 in1015.6 mb 0.00 in0.0 mm 0.00 in0.0 mm 0.66 in16.8 mm
11:00 PM 49.6°F9.8°C 36.3°F2.4°C 60% 9.0 mph SSW14.5 kmh SSW 11.0 mph17.7 kmh 29.99 in1015.6 mb 0.00 in0.0 mm 0.00 in0.0 mm 0.66 in16.8 mm
11:05 PM 49.4°F9.7°C 35.3°F1.8°C 58% 7.0 mph SSW11.3 kmh SSW 13.0 mph20.9 kmh 29.98 in1015.2 mb 0.00 in0.0 mm 0.00 in0.0 mm 0.66 in16.8 mm
11:10 PM 49.3°F9.6°C 36.0°F2.2°C 60% 6.0 mph SSW9.7 kmh SSW 9.0 mph14.5 kmh 29.99 in1015.6 mb 0.00 in0.0 mm 0.00 in0.0 mm 0.66 in16.8 mm
11:15 PM 49.3°F9.6°C 36.0°F2.2°C 60% 6.0 mph S9.7 kmh S 14.0 mph22.5 kmh 30.00 in1015.9 mb 0.00 in0.0 mm 0.00 in0.0 mm 0.66 in16.8 mm
11:20 PM 49.2°F9.6°C 35.9°F2.2°C 60% 8.0 mph S12.9 kmh S 14.0 mph22.5 kmh 30.00 in1015.9 mb 0.00 in0.0 mm 0.00 in0.0 mm 0.66 in16.8 mm
11:25 PM 49.1°F9.5°C 35.8°F2.1°C 60% 7.0 mph S11.3 kmh S 9.0 mph14.5 kmh 30.00 in1015.9 mb 0.00 in0.0 mm 0.00 in0.0 mm 0.66 in16.8 mm
11:30 PM 49.0°F9.4°C 35.3°F1.8°C 59% 9.0 mph S14.5 kmh S 9.0 mph14.5 kmh 30.00 in1015.9 mb 0.00 in0.0 mm 0.00 in0.0 mm 0.66 in16.8 mm
11:35 PM 48.8°F9.3°C 35.1°F1.7°C 59% 10.0 mph S16.1 kmh S 10.0 mph16.1 kmh 30.00 in1015.9 mb 0.00 in0.0 mm 0.00 in0.0 mm 0.66 in16.8 mm
11:40 PM 48.7°F9.3°C 35.0°F1.7°C 59% 5.0 mph S8.0 kmh S 10.0 mph16.1 kmh 30.00 in1015.9 mb 0.00 in0.0 mm 0.00 in0.0 mm 0.66 in16.8 mm
11:45 PM 48.6°F9.2°C 35.4°F1.9°C 60% 8.0 mph SSW12.9 kmh SSW 11.0 mph17.7 kmh 30.01 in1016.3 mb 0.00 in0.0 mm 0.00 in0.0 mm 0.66 in16.8 mm
11:50 PM 48.6°F9.2°C 35.4°F1.9°C 60% 9.0 mph S14.5 kmh S 11.0 mph17.7 kmh 30.01 in1016.3 mb 0.00 in0.0 mm 0.00 in0.0 mm 0.66 in16.8 mm
11:55 PM 48.5°F9.2°C 35.3°F1.8°C 60% 9.0 mph S14.5 kmh S 12.0 mph19.3 kmh 30.01 in1016.3 mb 0.00 in0.0 mm 0.00 in0.0 mm 0.66 in16.8 mm